Time;durP1;ratioP1;P1;durP2;ratioP2;P2;SDS_P1;SDS_P2;PMS_P1;PMS_P2;Temp;Humidity;BMP_temperature;BMP_pressure;BME280_temperature;BME280_humidity;BME280_pressure;Samples;Min_cycle;Max_cycle;Signal;HPM_P1;HPM_P2
2023/07/23 00:02:13;;;;;;;5.90;3.17;;;15.20;99.90;;;;;;5018622;28;20056;-72
2023/07/23 00:04:38;;;;;;;5.50;3.00;;;15.20;99.90;;;;;;5019587;28;20103;-72
2023/07/23 00:07:04;;;;;;;11.27;3.28;;;15.20;99.90;;;;;;5020611;28;20052;-74
2023/07/23 00:09:30;;;;;;;5.22;2.55;;;15.20;99.90;;;;;;5000112;28;20633;-74
2023/07/23 00:11:55;;;;;;;5.75;3.47;;;15.20;99.90;;;;;;5000643;28;20033;-72
2023/07/23 00:14:21;;;;;;;7.28;2.53;;;15.20;99.90;;;;;;5020432;28;20041;-74
2023/07/23 00:16:47;;;;;;;6.60;2.85;;;15.20;99.90;;;;;;5018767;28;20407;-72
2023/07/23 00:19:19;;;;;;;10.48;2.80;;;15.20;99.90;;;;;;5001750;28;20045;-73
2023/07/23 00:21:45;;;;;;;6.20;2.90;;;15.20;99.90;;;;;;5019245;28;20037;-72
2023/07/23 00:24:11;;;;;;;8.02;3.17;;;15.20;99.90;;;;;;5001432;28;20096;-72
2023/07/23 00:26:36;;;;;;;6.78;3.03;;;15.20;99.90;;;;;;5002613;28;20081;-72
2023/07/23 00:29:02;;;;;;;7.45;3.20;;;15.20;99.90;;;;;;5019411;28;20518;-71
2023/07/23 00:31:28;;;;;;;8.15;3.75;;;15.20;99.90;;;;;;5020616;28;20747;-72
2023/07/23 00:33:53;;;;;;;8.48;3.95;;;15.20;99.90;;;;;;5017909;28;20034;-73
2023/07/23 00:36:19;;;;;;;9.60;3.90;;;15.20;99.90;;;;;;5020379;28;20136;-71
2023/07/23 00:38:44;;;;;;;9.38;3.22;;;15.20;99.90;;;;;;5000606;28;20041;-72
2023/07/23 00:41:10;;;;;;;7.80;3.40;;;15.20;99.90;;;;;;5019071;28;20092;-73
2023/07/23 00:43:35;;;;;;;8.38;3.22;;;15.20;99.90;;;;;;5020281;28;20483;-72
2023/07/23 00:46:01;;;;;;;9.13;3.40;;;15.20;99.90;;;;;;5018809;28;20521;-72
2023/07/23 00:48:26;;;;;;;9.15;2.97;;;15.20;99.90;;;;;;5020256;28;20440;-72
2023/07/23 00:50:52;;;;;;;7.75;3.28;;;15.20;99.90;;;;;;5000567;28;20045;-72
2023/07/23 00:53:18;;;;;;;7.57;3.08;;;15.20;99.90;;;;;;5019624;28;20128;-71
2023/07/23 00:55:44;;;;;;;9.50;3.60;;;15.20;99.90;;;;;;5000707;28;20068;-73
2023/07/23 00:58:10;;;;;;;6.57;3.40;;;15.20;99.90;;;;;;5019390;28;20053;-73
2023/07/23 01:00:36;;;;;;;13.63;3.45;;;15.20;99.90;;;;;;5019568;28;20106;-72
2023/07/23 01:03:02;;;;;;;10.63;3.40;;;15.20;99.90;;;;;;5019802;28;20080;-72
2023/07/23 01:05:29;;;;;;;12.50;3.63;;;15.20;99.90;;;;;;5017156;28;20029;-72
2023/07/23 01:07:56;;;;;;;7.80;3.30;;;15.20;99.90;;;;;;5021032;28;20049;-71
2023/07/23 01:10:22;;;;;;;9.18;4.05;;;15.20;99.90;;;;;;5015854;28;20041;-73
2023/07/23 01:12:49;;;;;;;15.85;4.18;;;15.20;99.90;;;;;;5017662;28;20026;-71
2023/07/23 01:15:14;;;;;;;7.05;3.42;;;15.20;99.90;;;;;;5019190;28;20067;-71
2023/07/23 01:17:42;;;;;;;9.82;3.42;;;15.30;99.90;;;;;;5018876;28;20567;-72
2023/07/23 01:20:08;;;;;;;5.38;2.83;;;15.30;99.90;;;;;;5018994;28;20034;-72
2023/07/23 01:22:35;;;;;;;10.98;3.60;;;15.30;99.90;;;;;;5001254;28;20124;-71
2023/07/23 01:25:01;;;;;;;7.82;3.10;;;15.30;99.90;;;;;;5017847;28;20026;-71
2023/07/23 01:27:27;;;;;;;7.05;2.95;;;15.30;99.90;;;;;;5018958;28;20494;-71
2023/07/23 01:29:53;;;;;;;7.00;3.53;;;15.20;99.90;;;;;;4999421;28;20092;-72
2023/07/23 01:32:18;;;;;;;8.60;3.75;;;15.30;99.90;;;;;;5019422;28;20100;-72
2023/07/23 01:34:44;;;;;;;8.13;3.15;;;15.20;99.90;;;;;;5017304;28;20061;-72
2023/07/23 01:37:10;;;;;;;7.57;3.10;;;15.20;99.90;;;;;;5000519;28;20038;-74
2023/07/23 01:39:36;;;;;;;7.22;3.55;;;15.20;99.90;;;;;;5015971;28;20036;-71
2023/07/23 01:42:03;;;;;;;8.75;3.72;;;15.20;99.90;;;;;;5019166;28;20026;-71
2023/07/23 01:44:29;;;;;;;12.55;4.50;;;15.20;99.90;;;;;;5016754;28;20034;-72
2023/07/23 01:46:54;;;;;;;7.43;3.35;;;15.20;99.90;;;;;;5018273;28;20084;-72
2023/07/23 01:49:20;;;;;;;8.45;4.05;;;15.20;99.90;;;;;;5018782;28;20037;-71
2023/07/23 01:51:46;;;;;;;11.80;4.25;;;15.20;99.90;;;;;;5016771;28;20034;-71
2023/07/23 01:54:11;;;;;;;6.22;3.35;;;15.20;99.90;;;;;;5017915;28;20052;-72
2023/07/23 01:56:37;;;;;;;10.85;3.47;;;15.20;99.90;;;;;;5017589;28;20410;-71
2023/07/23 01:59:04;;;;;;;7.80;4.13;;;15.20;99.90;;;;;;5019288;28;20033;-71
2023/07/23 02:01:30;;;;;;;8.40;4.15;;;15.10;99.90;;;;;;5016789;28;20373;-71
2023/07/23 02:03:55;;;;;;;7.30;3.72;;;15.10;99.90;;;;;;5002661;28;20036;-71
2023/07/23 02:06:21;;;;;;;8.57;3.75;;;15.10;99.90;;;;;;5014280;28;20069;-73
2023/07/23 02:08:47;;;;;;;6.53;3.30;;;15.10;99.90;;;;;;5019525;28;20029;-72
2023/07/23 02:11:12;;;;;;;7.22;3.70;;;15.10;99.90;;;;;;5015486;28;20033;-72
2023/07/23 02:13:38;;;;;;;13.82;4.70;;;15.10;99.90;;;;;;5018636;28;20038;-73
2023/07/23 02:16:04;;;;;;;9.40;4.25;;;15.10;99.90;;;;;;5021821;28;20037;-73
2023/07/23 02:18:29;;;;;;;12.02;3.55;;;15.10;99.90;;;;;;5016336;28;20038;-72
2023/07/23 02:20:55;;;;;;;7.88;3.90;;;15.10;99.90;;;;;;5018585;28;20517;-72
2023/07/23 02:23:21;;;;;;;11.70;3.72;;;15.10;99.90;;;;;;5014502;28;20776;-72
2023/07/23 02:25:49;;;;;;;10.40;4.32;;;15.20;99.90;;;;;;5019435;28;20034;-72
2023/07/23 02:28:15;;;;;;;13.07;3.58;;;15.20;99.90;;;;;;5011323;28;20045;-73
2023/07/23 02:30:41;;;;;;;11.38;3.95;;;15.20;99.90;;;;;;5000999;28;20029;-73
2023/07/23 02:33:07;;;;;;;9.98;3.65;;;15.20;99.90;;;;;;5016449;28;20041;-73
2023/07/23 02:35:36;;;;;;;8.95;3.85;;;15.20;99.90;;;;;;4999572;28;20075;-72
2023/07/23 02:38:02;;;;;;;10.45;3.85;;;15.10;99.90;;;;;;5017500;28;20426;-71
2023/07/23 02:40:33;;;;;;;8.73;3.70;;;15.10;99.90;;;;;;5015757;28;20391;-72
2023/07/23 02:43:00;;;;;;;8.25;3.90;;;15.10;99.90;;;;;;5017863;28;20025;-73
2023/07/23 02:45:26;;;;;;;6.00;3.30;;;15.10;99.90;;;;;;5018831;28;20037;-72
2023/07/23 02:47:52;;;;;;;7.28;3.50;;;15.10;99.90;;;;;;5016222;28;20084;-72
2023/07/23 02:50:17;;;;;;;6.40;3.13;;;15.10;99.90;;;;;;5017684;28;20103;-73
2023/07/23 02:52:43;;;;;;;8.07;3.40;;;15.10;99.90;;;;;;5011782;28;20038;-72
2023/07/23 02:55:08;;;;;;;11.68;3.67;;;15.20;99.90;;;;;;5017878;28;20037;-72
2023/07/23 02:57:34;;;;;;;15.75;3.80;;;15.10;99.90;;;;;;5017446;28;20044;-72
2023/07/23 03:00:00;;;;;;;9.10;3.47;;;15.10;99.90;;;;;;5017494;28;20406;-72
2023/07/23 03:02:25;;;;;;;7.85;3.00;;;15.10;99.90;;;;;;5015497;28;20030;-72
2023/07/23 03:04:51;;;;;;;9.40;2.72;;;15.20;99.90;;;;;;5018571;28;20035;-72
2023/07/23 03:07:16;;;;;;;5.32;3.20;;;15.10;99.90;;;;;;5014319;28;20403;-73
2023/07/23 03:09:42;;;;;;;5.93;3.15;;;15.10;99.90;;;;;;5011491;28;20121;-71
2023/07/23 03:12:09;;;;;;;7.57;2.78;;;15.10;99.90;;;;;;5017753;28;20033;-72
2023/07/23 03:14:35;;;;;;;6.25;2.63;;;15.10;99.90;;;;;;5015537;28;20122;-72
2023/07/23 03:17:01;;;;;;;6.80;3.08;;;15.10;99.90;;;;;;5017455;28;20074;-72
2023/07/23 03:19:27;;;;;;;11.25;2.97;;;15.10;99.90;;;;;;4998750;28;20119;-72
2023/07/23 03:21:53;;;;;;;8.23;3.60;;;15.10;99.90;;;;;;5014812;28;20390;-71
2023/07/23 03:24:18;;;;;;;9.50;3.67;;;15.10;99.90;;;;;;5014565;28;20125;-71
2023/07/23 03:26:44;;;;;;;6.70;2.70;;;15.10;99.90;;;;;;5020369;28;20422;-70
2023/07/23 03:29:09;;;;;;;5.82;3.03;;;15.10;99.90;;;;;;5014847;28;20037;-72
2023/07/23 03:31:35;;;;;;;10.45;3.65;;;15.10;99.90;;;;;;4999956;28;20041;-71
2023/07/23 03:34:00;;;;;;;8.02;3.13;;;15.10;99.90;;;;;;5016333;28;20030;-71
2023/07/23 03:36:27;;;;;;;10.73;3.17;;;15.10;99.90;;;;;;5019640;28;20065;-72
2023/07/23 03:38:53;;;;;;;7.32;3.05;;;15.00;99.90;;;;;;5018366;28;20037;-72
2023/07/23 03:41:18;;;;;;;8.43;3.72;;;15.00;99.90;;;;;;5020623;28;20445;-72
2023/07/23 03:43:44;;;;;;;10.38;3.22;;;15.00;99.90;;;;;;5001192;28;20052;-71
2023/07/23 03:46:09;;;;;;;7.32;3.35;;;15.00;99.90;;;;;;5021622;28;20414;-72
2023/07/23 03:48:35;;;;;;;7.70;3.38;;;15.00;99.90;;;;;;5018497;28;20128;-71
2023/07/23 03:51:01;;;;;;;10.73;3.40;;;15.00;99.90;;;;;;5020518;28;20077;-73
2023/07/23 03:53:26;;;;;;;10.00;3.38;;;15.00;99.90;;;;;;5019329;28;20077;-71
2023/07/23 03:55:52;;;;;;;10.45;3.20;;;15.00;99.90;;;;;;5017971;28;20065;-71
2023/07/23 03:58:17;;;;;;;8.65;3.15;;;15.10;99.90;;;;;;5020775;28;20042;-73
2023/07/23 04:00:43;;;;;;;6.85;3.03;;;15.00;99.90;;;;;;5022192;28;20041;-72
2023/07/23 04:03:09;;;;;;;7.10;2.95;;;15.00;99.90;;;;;;5017234;28;20037;-72
2023/07/23 04:05:34;;;;;;;8.23;2.92;;;15.00;99.90;;;;;;5002600;28;20091;-72
2023/07/23 04:08:00;;;;;;;7.35;3.20;;;15.10;99.90;;;;;;5001929;28;20083;-73
2023/07/23 04:10:26;;;;;;;7.18;3.05;;;15.10;99.90;;;;;;5001495;28;20033;-73
2023/07/23 04:12:51;;;;;;;7.85;3.30;;;15.10;99.90;;;;;;5017927;28;20044;-72
2023/07/23 04:15:17;;;;;;;7.53;2.97;;;15.10;99.90;;;;;;5019336;28;20052;-73
2023/07/23 04:17:42;;;;;;;7.75;2.70;;;15.10;99.90;;;;;;5021409;28;20129;-72
2023/07/23 04:20:08;;;;;;;7.68;2.72;;;15.10;99.90;;;;;;5013121;28;20033;-73
2023/07/23 04:22:34;;;;;;;5.38;2.80;;;15.10;99.90;;;;;;5018241;28;20064;-72
2023/07/23 04:24:59;;;;;;;8.50;2.65;;;15.20;99.90;;;;;;5017630;28;20065;-71
2023/07/23 04:27:25;;;;;;;7.00;3.63;;;15.20;99.90;;;;;;5018738;28;20049;-71
2023/07/23 04:29:51;;;;;;;9.25;3.33;;;15.10;99.90;;;;;;5018261;28;20046;-71
2023/07/23 04:32:17;;;;;;;9.25;2.88;;;15.20;99.90;;;;;;5019467;28;20053;-73
2023/07/23 04:34:42;;;;;;;7.75;2.88;;;15.20;99.90;;;;;;5017930;28;20061;-72
2023/07/23 04:37:10;;;;;;;6.57;2.53;;;15.20;99.90;;;;;;5020755;28;20041;-72
2023/07/23 04:39:36;;;;;;;9.35;3.58;;;15.20;99.90;;;;;;5017404;28;20041;-72
2023/07/23 04:42:01;;;;;;;4.70;2.28;;;15.30;99.90;;;;;;5020486;28;20037;-73
2023/07/23 04:44:27;;;;;;;7.65;2.40;;;15.30;99.90;;;;;;5017914;28;20104;-72
2023/07/23 04:46:52;;;;;;;5.95;2.72;;;15.30;99.90;;;;;;5021031;28;20073;-72
2023/07/23 04:49:18;;;;;;;9.20;2.72;;;15.30;99.90;;;;;;5008664;28;20108;-73
2023/07/23 04:51:43;;;;;;;6.15;2.05;;;15.30;99.90;;;;;;5018046;28;20041;-73
2023/07/23 04:54:09;;;;;;;6.45;2.83;;;15.30;99.90;;;;;;5020627;28;20710;-72
2023/07/23 04:56:35;;;;;;;11.55;3.50;;;15.40;99.90;;;;;;5016021;28;20162;-72
2023/07/23 04:59:00;;;;;;;5.05;2.45;;;15.40;99.90;;;;;;5016976;28;20042;-73
2023/07/23 05:01:26;;;;;;;5.63;2.13;;;15.40;99.90;;;;;;5017562;28;20045;-73
2023/07/23 05:03:51;;;;;;;7.57;2.67;;;15.40;99.90;;;;;;5018832;28;20044;-73
2023/07/23 05:06:17;;;;;;;9.75;2.45;;;15.50;99.90;;;;;;5018843;28;20060;-73
2023/07/23 05:08:43;;;;;;;8.75;2.60;;;15.50;99.90;;;;;;5017315;28;20088;-73
2023/07/23 05:11:08;;;;;;;7.32;3.03;;;15.50;99.90;;;;;;5017170;28;20034;-71
2023/07/23 05:13:37;;;;;;;6.07;2.13;;;15.50;99.90;;;;;;5019712;28;20449;-73
2023/07/23 05:16:03;;;;;;;11.10;2.92;;;15.40;99.90;;;;;;5016170;28;20041;-73
2023/07/23 05:18:30;;;;;;;11.68;2.92;;;15.50;99.90;;;;;;5016733;28;20549;-73
2023/07/23 05:20:55;;;;;;;7.75;2.67;;;15.40;99.90;;;;;;5019456;28;20411;-73
2023/07/23 05:23:22;;;;;;;10.35;2.85;;;15.50;99.90;;;;;;5017484;28;20029;-73
2023/07/23 05:25:48;;;;;;;6.57;3.20;;;15.50;99.90;;;;;;5018314;28;20053;-72
2023/07/23 05:28:14;;;;;;;7.50;3.25;;;15.60;99.90;;;;;;5001227;28;20136;-73
2023/07/23 05:30:40;;;;;;;11.38;3.25;;;15.50;99.90;;;;;;5016385;28;20403;-72
2023/07/23 05:33:06;;;;;;;5.50;2.45;;;15.50;99.90;;;;;;5019975;28;20037;-72
2023/07/23 05:35:32;;;;;;;3.80;2.20;;;15.50;99.90;;;;;;5015263;28;20069;-73
2023/07/23 05:37:57;;;;;;;5.22;2.45;;;15.50;99.90;;;;;;5019593;28;20561;-72
2023/07/23 05:40:23;;;;;;;10.23;2.83;;;15.50;99.90;;;;;;5016545;28;20033;-72
2023/07/23 05:42:48;;;;;;;6.20;2.58;;;15.50;99.90;;;;;;5017611;28;20491;-72
2023/07/23 05:45:14;;;;;;;7.15;2.88;;;15.50;99.90;;;;;;5015026;28;20056;-71
2023/07/23 05:47:39;;;;;;;9.15;2.88;;;15.50;99.90;;;;;;5019750;28;20072;-72
2023/07/23 05:50:05;;;;;;;10.48;2.95;;;15.50;99.90;;;;;;5016468;28;20030;-71
2023/07/23 05:52:31;;;;;;;8.00;3.10;;;15.40;99.90;;;;;;5018561;28;20040;-73
2023/07/23 05:54:56;;;;;;;6.10;2.97;;;15.40;99.90;;;;;;5017236;28;20038;-73
2023/07/23 05:57:22;;;;;;;5.05;2.70;;;15.40;99.90;;;;;;5018817;28;20461;-72
2023/07/23 05:59:48;;;;;;;10.10;3.17;;;15.50;99.90;;;;;;5017705;28;20049;-71
2023/07/23 06:02:13;;;;;;;10.20;3.05;;;15.50;99.90;;;;;;5018551;28;20034;-72
2023/07/23 06:04:39;;;;;;;6.15;2.85;;;15.50;99.90;;;;;;5002548;28;20069;-73
2023/07/23 06:07:05;;;;;;;10.73;3.00;;;15.50;99.90;;;;;;5019711;28;20037;-74
2023/07/23 06:09:30;;;;;;;12.57;2.83;;;15.50;99.90;;;;;;5015296;28;20065;-72
2023/07/23 06:11:56;;;;;;;10.55;2.83;;;15.50;99.90;;;;;;5019025;28;20030;-73
2023/07/23 06:14:21;;;;;;;8.75;2.80;;;15.40;99.90;;;;;;5016308;28;20052;-73
2023/07/23 06:16:47;;;;;;;9.52;3.00;;;15.40;99.90;;;;;;5017644;28;20463;-71
2023/07/23 06:19:13;;;;;;;10.25;3.13;;;15.40;99.90;;;;;;5018126;28;20515;-72
2023/07/23 06:21:39;;;;;;;6.68;2.92;;;15.40;99.90;;;;;;5001453;28;20478;-72
2023/07/23 06:24:05;;;;;;;4.35;2.38;;;15.40;99.90;;;;;;5015786;28;20052;-71
2023/07/23 06:26:30;;;;;;;5.28;2.22;;;15.40;99.90;;;;;;5018370;28;20041;-72
2023/07/23 06:28:56;;;;;;;5.75;2.50;;;15.30;99.90;;;;;;4998569;28;20029;-72
2023/07/23 06:31:22;;;;;;;9.18;2.33;;;15.40;99.90;;;;;;5016962;28;20866;-71
2023/07/23 06:33:47;;;;;;;9.38;3.22;;;15.30;99.90;;;;;;5017510;28;20136;-71
2023/07/23 06:36:13;;;;;;;10.00;2.97;;;15.30;99.90;;;;;;5016090;28;20096;-72
2023/07/23 06:38:38;;;;;;;6.68;2.50;;;15.30;99.90;;;;;;5018401;28;20068;-71
2023/07/23 06:41:05;;;;;;;6.13;2.28;;;15.30;99.90;;;;;;5015686;28;20022;-71
2023/07/23 06:43:31;;;;;;;8.15;2.08;;;15.30;99.90;;;;;;5011084;28;20121;-72
2023/07/23 06:45:56;;;;;;;5.13;2.50;;;15.40;99.90;;;;;;4998786;28;20116;-73
2023/07/23 06:48:27;;;;;;;5.32;2.72;;;15.40;99.90;;;;;;4999762;28;20495;-73
2023/07/23 06:50:57;;;;;;;6.45;2.60;;;15.50;99.90;;;;;;5016002;28;20069;-71
2023/07/23 06:53:23;;;;;;;7.10;2.50;;;15.50;99.90;;;;;;5016969;28;20048;-73
2023/07/23 06:55:58;;;;;;;7.75;2.67;;;15.50;99.90;;;;;;5017020;28;20487;-72
2023/07/23 06:58:23;;;;;;;6.30;2.47;;;15.50;99.90;;;;;;5015584;28;20842;-72
2023/07/23 07:00:49;;;;;;;7.35;2.25;;;15.60;99.90;;;;;;5019681;28;20121;-74
2023/07/23 07:03:14;;;;;;;8.55;3.10;;;15.60;99.90;;;;;;5016121;28;20026;-73
2023/07/23 07:05:40;;;;;;;5.55;2.78;;;15.70;99.90;;;;;;5017879;28;20136;-71
2023/07/23 07:08:05;;;;;;;7.68;2.85;;;15.70;99.90;;;;;;5019779;28;20033;-72
2023/07/23 07:10:31;;;;;;;6.88;2.78;;;15.70;99.90;;;;;;5022435;28;20034;-72
2023/07/23 07:12:57;;;;;;;6.13;2.60;;;15.80;99.90;;;;;;5019446;28;20069;-73
2023/07/23 07:15:22;;;;;;;6.05;2.70;;;15.80;99.90;;;;;;5004584;28;20053;-72
2023/07/23 07:17:48;;;;;;;7.55;2.33;;;15.90;99.90;;;;;;5016975;28;20045;-72
2023/07/23 07:20:13;;;;;;;6.38;2.88;;;15.90;99.90;;;;;;5020022;28;20030;-73
2023/07/23 07:22:39;;;;;;;8.93;2.65;;;15.90;99.90;;;;;;5019418;28;20041;-72
2023/07/23 07:25:05;;;;;;;8.13;2.50;;;15.80;99.90;;;;;;5018990;28;20025;-73
2023/07/23 07:27:30;;;;;;;7.15;2.38;;;15.90;99.90;;;;;;5016806;28;20107;-72
2023/07/23 07:29:56;;;;;;;7.85;2.33;;;15.90;99.90;;;;;;5015047;28;20029;-72
2023/07/23 07:32:21;;;;;;;5.95;2.85;;;15.90;99.90;;;;;;5010431;28;20099;-72
2023/07/23 07:34:47;;;;;;;6.75;2.40;;;15.80;99.90;;;;;;5019088;28;20026;-73
2023/07/23 07:37:12;;;;;;;6.40;2.95;;;15.90;99.90;;;;;;5000311;28;20471;-73
2023/07/23 07:39:38;;;;;;;9.88;2.47;;;15.90;99.90;;;;;;5004017;28;20399;-72
2023/07/23 07:42:04;;;;;;;7.63;2.70;;;15.90;99.90;;;;;;5046374;22;20041;-71
2023/07/23 07:44:30;;;;;;;10.70;2.47;;;15.80;99.90;;;;;;5014955;28;20030;-70
2023/07/23 07:46:55;;;;;;;7.80;2.60;;;15.90;99.90;;;;;;5020740;28;20454;-72
2023/07/23 07:49:21;;;;;;;7.88;2.97;;;15.90;99.90;;;;;;5001741;28;20042;-71
2023/07/23 07:51:47;;;;;;;7.53;2.78;;;15.90;99.90;;;;;;5018766;28;20068;-72
2023/07/23 07:54:13;;;;;;;9.32;2.83;;;15.90;99.90;;;;;;5016072;28;20038;-74
2023/07/23 07:56:39;;;;;;;8.82;2.33;;;15.90;99.90;;;;;;5002470;28;20859;-71
2023/07/23 07:59:06;;;;;;;4.35;2.35;;;15.90;99.90;;;;;;5001328;28;20124;-70
2023/07/23 08:01:32;;;;;;;7.03;2.20;;;15.90;99.90;;;;;;5016923;28;20033;-70
2023/07/23 08:03:57;;;;;;;6.35;2.10;;;16.00;99.90;;;;;;5020491;28;20045;-70
2023/07/23 08:06:24;;;;;;;4.88;2.15;;;16.00;99.90;;;;;;4997866;28;20026;-70
2023/07/23 08:08:51;;;;;;;5.30;2.03;;;16.00;99.90;;;;;;5000336;28;20069;-68
2023/07/23 08:11:17;;;;;;;12.32;3.00;;;16.10;99.90;;;;;;5014888;28;20078;-70
2023/07/23 08:13:43;;;;;;;5.55;2.30;;;16.10;99.90;;;;;;5020396;28;20447;-70
2023/07/23 08:16:12;;;;;;;6.93;2.25;;;16.10;99.90;;;;;;5001186;28;20054;-71
2023/07/23 08:18:38;;;;;;;5.95;2.17;;;16.20;99.90;;;;;;5016553;28;20558;-69
2023/07/23 08:21:04;;;;;;;3.53;1.60;;;16.30;99.90;;;;;;5017257;28;20121;-70
2023/07/23 08:23:30;;;;;;;4.70;1.98;;;16.30;99.90;;;;;;5002091;28;20029;-71
2023/07/23 08:25:58;;;;;;;4.88;2.13;;;16.30;99.90;;;;;;4999188;28;20030;-71
2023/07/23 08:28:29;;;;;;;3.53;2.10;;;16.30;99.90;;;;;;5015352;28;20036;-70
2023/07/23 08:30:56;;;;;;;2.30;1.60;;;16.40;99.90;;;;;;5007349;28;20401;-71
2023/07/23 08:33:26;;;;;;;4.60;1.80;;;16.50;99.90;;;;;;5007197;28;20042;-71
2023/07/23 08:35:51;;;;;;;4.23;2.13;;;16.50;99.90;;;;;;4992701;28;20136;-70
2023/07/23 08:38:17;;;;;;;4.80;2.42;;;16.50;99.90;;;;;;5008011;28;20116;-69
2023/07/23 08:40:45;;;;;;;8.15;2.20;;;16.50;99.90;;;;;;5007619;28;20068;-69
2023/07/23 08:43:29;;;;;;;4.10;2.10;;;16.50;99.90;;;;;;5007313;28;20083;-72
2023/07/23 08:46:13;;;;;;;8.38;2.15;;;16.60;99.90;;;;;;4993152;28;20104;-71
2023/07/23 08:49:03;;;;;;;4.75;2.42;;;16.60;99.90;;;;;;4993589;28;20038;-70
2023/07/23 08:51:34;;;;;;;4.32;1.80;;;16.50;99.90;;;;;;4987830;28;20202;-70
2023/07/23 08:54:01;;;;;;;4.13;1.80;;;16.60;99.90;;;;;;5011064;28;20094;-69
2023/07/23 08:56:26;;;;;;;5.78;2.20;;;16.50;99.90;;;;;;5006772;28;20026;-70
2023/07/23 08:58:53;;;;;;;7.20;2.30;;;16.60;99.90;;;;;;4991887;28;20114;-71
2023/07/23 09:01:19;;;;;;;3.00;1.85;;;16.60;99.90;;;;;;5008215;28;20033;-69
2023/07/23 09:03:44;;;;;;;4.30;2.28;;;16.70;99.90;;;;;;4989685;28;20045;-70
2023/07/23 09:06:10;;;;;;;4.72;2.15;;;16.60;99.90;;;;;;4988383;28;20041;-70
2023/07/23 09:08:36;;;;;;;4.57;2.20;;;16.70;99.90;;;;;;5006678;28;20041;-71
2023/07/23 09:11:04;;;;;;;6.93;2.83;;;16.70;99.90;;;;;;5008265;28;20469;-69
2023/07/23 09:13:34;;;;;;;5.00;1.88;;;16.70;99.90;;;;;;5009639;28;20040;-71
2023/07/23 09:16:00;;;;;;;3.60;1.80;;;16.70;99.90;;;;;;5009672;28;20033;-70
2023/07/23 09:18:26;;;;;;;8.40;1.95;;;16.70;99.90;;;;;;4992250;28;20038;-69
2023/07/23 09:20:52;;;;;;;5.25;2.08;;;16.70;99.90;;;;;;5006015;28;20387;-69
2023/07/23 09:23:18;;;;;;;4.10;2.28;;;16.80;99.90;;;;;;5008528;28;20117;-69
2023/07/23 09:25:44;;;;;;;4.40;2.10;;;16.80;99.90;;;;;;5010993;28;20037;-72
2023/07/23 09:28:35;;;;;;;4.28;2.08;;;16.80;99.90;;;;;;5005868;28;20041;-70
2023/07/23 09:31:01;;;;;;;5.28;2.17;;;16.80;99.90;;;;;;4987118;28;20034;-70
2023/07/23 09:33:36;;;;;;;3.40;1.83;;;16.80;99.90;;;;;;5004394;28;20122;-69
2023/07/23 09:36:03;;;;;;;4.80;1.95;;;16.90;99.90;;;;;;4991023;28;20037;-70
2023/07/23 09:38:30;;;;;;;3.72;1.92;;;17.00;99.90;;;;;;5007982;28;20116;-69
2023/07/23 09:40:56;;;;;;;3.22;2.17;;;17.00;99.90;;;;;;4990968;28;20398;-69
2023/07/23 09:43:22;;;;;;;3.38;1.90;;;17.10;99.90;;;;;;5016100;28;20030;-70
2023/07/23 09:45:48;;;;;;;3.95;2.00;;;17.10;99.90;;;;;;5019456;28;20116;-71
2023/07/23 09:48:16;;;;;;;3.95;2.08;;;17.10;99.90;;;;;;5001698;28;20835;-70
2023/07/23 09:50:42;;;;;;;4.63;2.05;;;17.10;99.90;;;;;;5002545;28;20060;-70
2023/07/23 09:53:13;;;;;;;3.75;1.75;;;17.10;99.90;;;;;;5018125;28;20025;-70
2023/07/23 09:55:40;;;;;;;6.13;2.00;;;17.20;99.90;;;;;;5019873;28;20094;-71
2023/07/23 09:58:06;;;;;;;4.90;2.22;;;17.20;99.90;;;;;;5019200;28;20045;-71
2023/07/23 10:00:33;;;;;;;5.55;2.40;;;17.20;99.90;;;;;;4998774;28;20041;-70
2023/07/23 10:03:00;;;;;;;4.13;2.15;;;17.20;99.90;;;;;;5019136;28;20045;-69
2023/07/23 10:05:26;;;;;;;5.88;1.90;;;17.10;99.90;;;;;;4998116;28;20499;-70
2023/07/23 10:07:53;;;;;;;4.20;2.92;;;17.10;99.90;;;;;;4994442;28;20498;-71
2023/07/23 10:10:19;;;;;;;4.45;2.75;;;17.00;99.90;;;;;;4989086;28;20045;-70
2023/07/23 10:12:46;;;;;;;5.35;1.80;;;16.90;99.90;;;;;;5013683;28;20033;-69
2023/07/23 10:15:12;;;;;;;4.82;1.55;;;16.90;99.90;;;;;;5007068;28;20487;-71
2023/07/23 10:17:48;;;;;;;3.63;1.98;;;16.90;99.90;;;;;;4992533;28;20034;-70
2023/07/23 10:20:15;;;;;;;4.15;1.80;;;16.90;99.90;;;;;;5005586;28;20042;-71
2023/07/23 10:22:45;;;;;;;3.25;1.92;;;16.90;99.90;;;;;;4993773;28;20483;-70
2023/07/23 10:25:32;;;;;;;3.42;1.95;;;16.90;99.90;;;;;;4989677;28;20053;-70
2023/07/23 10:28:08;;;;;;;4.13;1.58;;;17.00;99.90;;;;;;4993427;28;20029;-69
2023/07/23 10:30:36;;;;;;;4.18;1.75;;;17.10;99.90;;;;;;5010299;28;20046;-70
2023/07/23 10:33:11;;;;;;;4.53;2.13;;;17.10;99.90;;;;;;5009168;28;20037;-70
2023/07/23 10:35:54;;;;;;;5.05;2.17;;;17.20;99.90;;;;;;4992292;28;20053;-70
2023/07/23 10:38:31;;;;;;;4.30;2.92;;;17.30;99.90;;;;;;4994637;28;20505;-69
2023/07/23 10:40:58;;;;;;;2.85;1.80;;;17.50;99.90;;;;;;5010642;28;20115;-70
2023/07/23 10:43:24;;;;;;;5.70;2.30;;;17.50;99.90;;;;;;5008775;28;20041;-72
2023/07/23 10:46:04;;;;;;;5.25;2.92;;;17.60;99.90;;;;;;5006097;28;20044;-71
2023/07/23 10:48:41;;;;;;;4.40;2.13;;;17.80;99.90;;;;;;5000713;28;20508;-70
2023/07/23 10:51:09;;;;;;;3.58;2.13;;;18.00;99.90;;;;;;4990972;28;20045;-69
2023/07/23 10:53:39;;;;;;;4.72;2.50;;;18.20;99.90;;;;;;5000306;28;20038;-70
2023/07/23 10:56:23;;;;;;;4.15;2.15;;;18.30;99.90;;;;;;5012281;28;20095;-70
2023/07/23 10:58:49;;;;;;;5.50;2.15;;;18.30;99.90;;;;;;5009852;28;20033;-70
2023/07/23 11:01:23;;;;;;;5.78;2.50;;;18.30;99.90;;;;;;5017295;28;20108;-70
2023/07/23 11:03:52;;;;;;;5.32;2.55;;;18.30;99.90;;;;;;5009745;28;20033;-71
2023/07/23 11:06:27;;;;;;;4.68;2.22;;;18.30;99.90;;;;;;5011187;28;20300;-70
2023/07/23 11:08:56;;;;;;;4.18;2.00;;;18.30;99.90;;;;;;4995717;28;20026;-69
2023/07/23 11:11:30;;;;;;;4.57;2.50;;;18.30;99.90;;;;;;5010534;28;20576;-69
2023/07/23 11:13:56;;;;;;;4.90;2.53;;;18.30;99.90;;;;;;5012747;28;20045;-69
2023/07/23 11:16:22;;;;;;;5.18;2.47;;;18.30;99.90;;;;;;5012021;28;20030;-69
2023/07/23 11:18:49;;;;;;;4.53;2.38;;;18.50;99.90;;;;;;5018583;28;20482;-70
2023/07/23 11:21:16;;;;;;;5.50;2.67;;;18.60;99.90;;;;;;4991824;28;20046;-72
2023/07/23 11:23:41;;;;;;;5.78;2.33;;;18.70;99.90;;;;;;4995531;28;20125;-71
2023/07/23 11:26:07;;;;;;;3.50;1.98;;;18.80;99.90;;;;;;4997080;28;20183;-70
2023/07/23 11:28:33;;;;;;;4.13;1.88;;;19.00;99.90;;;;;;4994205;28;20037;-68
2023/07/23 11:30:58;;;;;;;3.45;1.92;;;19.00;99.90;;;;;;5016931;28;20034;-72
2023/07/23 11:33:30;;;;;;;6.18;2.05;;;19.00;99.90;;;;;;5015766;28;20486;-70
2023/07/23 11:35:55;;;;;;;4.63;2.38;;;19.10;99.90;;;;;;4993536;28;20076;-70
2023/07/23 11:38:27;;;;;;;4.63;2.13;;;19.20;99.90;;;;;;4994849;28;20029;-71
2023/07/23 11:40:57;;;;;;;4.05;2.13;;;19.40;99.90;;;;;;5007316;28;20022;-70
2023/07/23 11:43:23;;;;;;;5.30;2.00;;;19.50;99.90;;;;;;5011197;28;20030;-71
2023/07/23 11:45:51;;;;;;;4.97;2.55;;;19.60;99.90;;;;;;5019426;28;20042;-69
2023/07/23 11:48:19;;;;;;;2.22;1.58;;;19.70;99.90;;;;;;5013439;28;20482;-70
2023/07/23 11:50:45;;;;;;;3.60;1.92;;;19.80;99.90;;;;;;5011305;28;20037;-69
2023/07/23 11:53:11;;;;;;;2.15;1.30;;;19.90;99.90;;;;;;5014447;28;20438;-71
2023/07/23 11:55:37;;;;;;;3.45;1.98;;;20.00;99.90;;;;;;5019016;28;20038;-70
2023/07/23 11:58:02;;;;;;;3.08;1.80;;;20.20;99.90;;;;;;5018681;28;20025;-70
2023/07/23 12:00:37;;;;;;;2.95;1.52;;;20.50;99.90;;;;;;5001073;28;20120;-70
2023/07/23 12:03:07;;;;;;;2.35;1.30;;;20.60;99.90;;;;;;5001704;28;20037;-72
2023/07/23 12:05:33;;;;;;;2.60;1.83;;;20.80;99.90;;;;;;5000402;28;20029;-70
2023/07/23 12:07:58;;;;;;;3.53;1.90;;;21.00;99.90;;;;;;5020433;28;20040;-70
2023/07/23 12:10:27;;;;;;;3.65;1.42;;;21.10;99.90;;;;;;5020100;28;20037;-70
2023/07/23 12:12:54;;;;;;;8.57;2.30;;;21.40;99.90;;;;;;5019593;28;20048;-69
2023/07/23 12:15:19;;;;;;;3.10;1.92;;;21.40;99.90;;;;;;4996011;28;20128;-71
2023/07/23 12:17:45;;;;;;;3.55;2.03;;;21.40;99.90;;;;;;5001062;28;20140;-70
2023/07/23 12:20:16;;;;;;;2.63;1.67;;;21.50;99.90;;;;;;5014198;28;20030;-71
2023/07/23 12:23:01;;;;;;;4.80;1.45;;;21.50;99.90;;;;;;5010876;28;20120;-70
2023/07/23 12:25:26;;;;;;;4.78;2.40;;;21.50;99.90;;;;;;5020041;28;20033;-70
2023/07/23 12:27:53;;;;;;;2.75;1.73;;;21.50;99.90;;;;;;5002458;28;20575;-70
2023/07/23 12:30:18;;;;;;;4.15;1.63;;;21.40;99.90;;;;;;5020354;28;20095;-70
2023/07/23 12:32:45;;;;;;;3.22;1.98;;;21.30;99.90;;;;;;5002329;28;20494;-69
2023/07/23 12:35:10;;;;;;;2.85;1.50;;;21.30;99.90;;;;;;4995596;28;20041;-72
2023/07/23 12:37:36;;;;;;;3.22;1.70;;;21.20;99.90;;;;;;5017583;28;20085;-70
2023/07/23 12:40:04;;;;;;;3.33;2.05;;;21.10;99.90;;;;;;5009479;28;20667;-69
2023/07/23 12:42:31;;;;;;;4.63;1.75;;;21.00;99.90;;;;;;5018588;28;20218;-69
2023/07/23 12:44:57;;;;;;;2.05;1.30;;;20.90;99.90;;;;;;5017267;28;20506;-69